Latest Weather Observations for Narrandera Airport

IDN60801

Issued at 11:32 am EDT Monday 30 March 2015 (issued every 30 minutes, with the page automatically refreshed every 10 minutes)

About weather observations | Map of weather stations | Latest weather observations for NSW | Other Formats
Station Details ID: 074148 Name: NARRANDERA AIRPORT AWS Lat: -34.70 Lon: 146.51 Height: 145.0 m
Data from the previous 72 hours. | See also: Recent months for locations in New South Wales
Date/Time
EDT
Temp
°C
App
Temp
°C
Dew
Point
Rel
Hum
%
Delta-T
°C
Wind Press
QNH
hPa
Press
MSL
hPa
Rain
since 9 am
mm
Dir
 
Spd
km/h
Gust
km/h
Spd
kts
Gust
kts
30/11:30am 23.4 21.0 5.3 31 9.1 E 7 13 4 7 1025.3 1024.8 0.0
30/11:00am 23.1 19.7 6.0 33 8.7 NE 13 17 7 9 1025.5 1025.0 0.0
30/10:30am 22.8 19.4 5.7 33 8.7 ENE 13 19 7 10 1025.5 1025.0 0.0
30/10:00am 21.5 18.1 5.8 36 7.9 ENE 13 17 7 9 1025.4 1024.9 0.0
30/09:30am 20.3 17.7 5.9 39 7.2 E 9 13 5 7 1025.3 1024.8 0.0
30/09:00am 18.8 16.6 6.3 44 6.2 E 7 11 4 6 1025.1 1024.6 0.0
30/08:30am 16.9 14.7 6.4 50 5.2 ESE 7 9 4 5 1024.7 1024.2 0.0
30/08:00am 15.1 14.2 5.9 54 4.4 CALM 0 6 0 3 1024.5 1024.0 0.0
30/07:30am 14.5 13.1 5.6 55 4.3 E 2 7 1 4 1024.3 1023.8 0.0
30/07:00am 14.4 13.5 6.0 57 4.0 CALM 0 0 0 0 1024.1 1023.6 0.0
30/06:30am 14.6 13.6 5.7 55 4.3 CALM 0 6 0 3 1023.8 1023.3 0.0
30/06:00am 14.4 12.2 6.3 58 3.9 ESE 7 9 4 5 1023.4 1022.9 0.0
30/05:30am 14.0 13.1 5.9 58 3.9 CALM 0 0 0 0 1023.1 1022.6 0.0
30/05:00am 14.2 13.1 5.3 55 4.2 CALM 0 0 0 0 1023.0 1022.5 0.0
30/04:30am 14.1 13.0 5.2 55 4.2 CALM 0 0 0 0 1022.7 1022.2 0.0
30/04:00am 13.9 12.9 5.5 57 4.0 CALM 0 0 0 0 1022.7 1022.2 0.0
30/03:30am 13.8 12.9 6.2 60 3.7 CALM 0 0 0 0 1022.7 1022.2 0.0
30/03:00am 13.7 12.7 5.8 59 3.7 CALM 0 0 0 0 1022.8 1022.3 0.0
30/02:30am 13.4 12.4 5.6 59 3.7 CALM 0 0 0 0 1023.1 1022.6 0.0
30/02:00am 13.3 12.3 5.5 59 3.7 CALM 0 0 0 0 1023.0 1022.5 0.0
30/01:30am 13.4 12.3 5.3 58 3.8 CALM 0 0 0 0 1023.2 1022.7 0.0
30/01:00am 13.1 12.1 5.5 60 3.6 CALM 0 6 0 3 1023.2 1022.7 0.0
30/12:30am 13.0 11.9 4.9 58 3.8 CALM 0 0 0 0 1023.3 1022.8 0.0
30/12:00am 12.7 11.5 4.7 58 3.7 CALM 0 0 0 0 1023.7 1023.2 0.0
 
Date/Time
EDT
Temp
°C
App
Temp
°C
Dew
Point
Rel
Hum
%
Delta-T
°C
Wind Press
QNH
hPa
Press
MSL
hPa
Rain
since 9 am
mm
Dir
 
Spd
km/h
Gust
km/h
Spd
kts
Gust
kts
29/11:30pm 14.0 13.0 5.6 57 4.0 CALM 0 0 0 0 1023.9 1023.4 0.0
29/11:00pm 13.9 12.9 5.5 57 4.0 CALM 0 0 0 0 1024.0 1023.5 0.0
29/10:30pm 14.3 13.3 5.4 55 4.2 CALM 0 0 0 0 1024.1 1023.6 0.0
29/10:00pm 15.0 14.0 5.8 54 4.4 CALM 0 0 0 0 1024.1 1023.6 0.0
29/09:30pm 15.5 14.6 6.0 53 4.6 CALM 0 0 0 0 1023.9 1023.4 0.0
29/09:00pm 16.0 15.0 5.6 50 5.0 CALM 0 0 0 0 1023.6 1023.1 0.0
29/08:30pm 16.6 15.6 5.6 48 5.3 CALM 0 0 0 0 1023.3 1022.8 0.0
29/08:00pm 18.1 17.1 5.7 44 6.1 CALM 0 0 0 0 1023.0 1022.5 0.0
29/07:30pm 18.9 17.9 5.7 42 6.5 CALM 0 0 0 0 1022.7 1022.2 0.0
29/07:00pm 20.7 18.6 5.9 38 7.4 W 6 7 3 4 1022.3 1021.8 0.0
29/06:30pm 21.9 19.5 5.3 34 8.3 WSW 7 9 4 5 1022.0 1021.4 0.0
29/06:00pm 22.9 20.4 4.9 31 9.0 W 7 11 4 6 1021.8 1021.2 0.0
29/05:30pm 23.0 20.2 5.0 31 9.0 W 9 13 5 7 1021.7 1021.1 0.0
29/05:00pm 23.3 21.8 4.8 30 9.2 WSW 2 7 1 4 1022.0 1021.4 0.0
29/04:30pm 23.2 20.7 4.7 30 9.2 SSE 7 11 4 6 1021.9 1021.3 0.0
29/04:00pm 24.1 22.6 5.0 29 9.6 SE 2 7 1 4 1022.0 1021.4 0.0
29/03:30pm 23.1 20.9 5.1 31 9.0 WNW 6 9 3 5 1022.3 1021.8 0.0
29/03:00pm 23.7 22.3 5.6 31 9.2 SSE 2 7 1 4 1022.9 1022.4 0.0
29/02:30pm 23.2 21.1 5.6 32 8.9 ENE 6 13 3 7 1023.0 1022.5 0.0
29/02:00pm 22.2 19.4 5.2 33 8.5 W 9 15 5 8 1023.5 1023.0 0.0
29/01:30pm 21.8 19.0 5.3 34 8.3 SW 9 13 5 7 1023.8 1023.3 0.0
29/01:00pm 21.4 19.0 5.3 35 8.0 S 7 11 4 6 1024.2 1023.7 0.0
29/12:30pm 21.2 18.9 4.7 34 8.1 SW 6 13 3 7 1024.3 1023.8 0.0
29/12:00pm 21.1 18.3 5.1 35 7.9 S 9 15 5 8 1024.3 1023.8 0.0
29/11:30am 21.7 19.6 5.6 35 8.1 SSW 6 11 3 6 1024.5 1024.0 0.0
29/11:00am 21.4 18.6 5.3 35 8.0 E 9 13 5 7 1024.6 1024.1 0.0
29/10:30am 20.4 17.9 4.0 34 7.9 E 6 11 3 6 1024.6 1024.1 0.0
29/10:00am 19.6 16.6 4.1 36 7.4 ESE 9 13 5 7 1024.6 1024.1 0.0
29/09:30am 19.3 17.3 4.3 37 7.2 E 4 11 2 6 1024.2 1023.7 0.0
29/09:00am 15.9 14.8 4.9 48 5.2 CALM 0 0 0 0 1023.8 1023.3 0.0
29/08:30am 11.7 10.5 4.4 61 3.3 CALM 0 0 0 0 1023.6 1023.1 0.0
29/08:00am 9.9 8.6 3.9 66 2.6 CALM 0 0 0 0 1023.1 1022.6 0.0
29/07:30am 9.4 8.0 3.6 67 2.5 CALM 0 0 0 0 1022.9 1022.4 0.0
29/07:00am 9.7 8.2 3.2 64 2.8 CALM 0 0 0 0 1022.7 1022.2 0.0
29/06:30am 9.6 8.2 3.8 67 2.6 CALM 0 0 0 0 1022.4 1021.9 0.0
29/06:00am 9.4 6.7 2.7 63 2.9 SSE 6 11 3 6 1022.2 1021.7 0.0
29/05:30am 10.6 9.1 3.2 60 3.2 CALM 0 0 0 0 1022.1 1021.5 0.0
29/05:00am 10.0 8.6 3.3 63 2.9 CALM 0 0 0 0 1021.5 1020.9 0.0
29/04:30am 10.3 8.8 3.1 61 3.1 CALM 0 0 0 0 1021.5 1020.9 0.0
29/04:00am 10.1 8.6 2.9 61 3.1 CALM 0 0 0 0 1021.3 1020.7 0.0
29/03:30am 10.1 8.0 4.0 66 2.7 ESE 4 7 2 4 1021.6 1021.0 0.0
29/03:00am 10.4 8.8 2.7 59 3.3 CALM 0 0 0 0 1021.9 1021.3 0.0
29/02:30am 11.1 9.5 2.7 56 3.7 CALM 0 0 0 0 1022.2 1021.7 0.0
29/02:00am 10.7 9.2 2.8 58 3.4 CALM 0 0 0 0 1022.3 1021.8 0.0
29/01:30am 11.0 9.4 2.3 55 3.8 CALM 0 0 0 0 1022.5 1022.0 0.0
29/01:00am 11.0 9.4 2.6 56 3.6 CALM 0 0 0 0 1022.5 1022.0 0.0
29/12:30am 11.2 9.7 2.8 56 3.7 CALM 0 0 0 0 1022.5 1022.0 0.0
29/12:00am 11.7 10.2 3.0 55 3.8 CALM 0 0 0 0 1022.5 1022.0 0.0
 
Date/Time
EDT
Temp
°C
App
Temp
°C
Dew
Point
Rel
Hum
%
Delta-T
°C
Wind Press
QNH
hPa
Press
MSL
hPa
Rain
since 9 am
mm
Dir
 
Spd
km/h
Gust
km/h
Spd
kts
Gust
kts
28/11:30pm 11.9 10.4 2.9 54 4.0 CALM 0 0 0 0 1022.7 1022.2 0.0
28/11:00pm 12.5 11.0 3.2 53 4.1 CALM 0 0 0 0 1022.6 1022.1 0.0
28/10:30pm 13.1 11.6 3.2 51 4.4 CALM 0 0 0 0 1022.6 1022.1 0.0
28/10:00pm 13.4 11.9 3.2 50 4.6 CALM 0 0 0 0 1022.6 1022.1 0.0
28/09:30pm 14.2 13.0 4.5 52 4.5 CALM 0 0 0 0 1022.6 1022.1 0.0
28/09:00pm 14.8 13.4 3.6 47 5.1 CALM 0 0 0 0 1022.3 1021.8 0.0
28/08:30pm 16.4 14.9 3.1 41 6.1 CALM 0 0 0 0 1022.3 1021.8 0.0
28/08:00pm 17.9 15.8 3.8 39 6.6 WSW 4 7 2 4 1022.0 1021.4 0.0
28/07:30pm 19.5 17.0 3.6 35 7.6 W 6 7 3 4 1021.7 1021.1 0.0
28/07:00pm 20.9 18.3 3.2 31 8.4 SW 6 9 3 5 1021.5 1020.9 0.0
28/06:30pm 21.7 18.6 3.4 30 8.8 WSW 9 13 5 7 1021.3 1020.7 0.0
28/06:00pm 22.3 18.7 2.9 28 9.3 WSW 11 19 6 10 1021.3 1020.7 0.0
28/05:30pm 23.4 18.7 3.4 27 9.8 WSW 17 22 9 12 1021.4 1020.8 0.0
28/05:00pm 23.6 19.3 3.0 26 10.0 WSW 15 20 8 11 1021.2 1020.6 0.0
28/04:30pm 23.5 19.5 2.9 26 10.0 WSW 13 22 7 12 1021.5 1020.9 0.0
28/04:00pm 22.7 17.6 2.8 27 9.5 SW 19 28 10 15 1022.0 1021.4 0.0
28/03:30pm 23.0 18.4 3.5 28 9.5 SW 17 26 9 14 1022.3 1021.8 0.0
28/03:00pm 22.7 18.3 2.8 27 9.5 W 15 26 8 14 1022.4 1021.9 0.0
28/02:30pm 21.9 18.1 4.0 31 8.7 SW 13 28 7 15 1022.8 1022.3 0.0
28/02:00pm 21.1 17.7 3.8 32 8.3 SW 11 20 6 11 1023.2 1022.7 0.0
28/01:30pm 20.1 15.9 3.8 34 7.8 SW 15 26 8 14 1023.4 1022.9 0.0
28/01:00pm 19.8 16.0 3.9 35 7.6 WSW 13 20 7 11 1024.0 1023.5 0.0
28/12:30pm 19.1 15.0 4.1 37 7.2 WSW 15 20 8 11 1024.4 1023.9 0.0
28/12:00pm 18.2 14.0 4.0 39 6.7 SSW 15 20 8 11 1025.0 1024.5 0.0
28/11:30am 17.5 14.6 4.5 42 6.2 SSW 9 19 5 10 1025.3 1024.8 0.0
28/11:00am 16.7 12.6 4.4 44 5.8 S 15 20 8 11 1025.3 1024.8 0.0
28/10:30am 16.3 12.5 5.9 50 5.1 SSW 15 22 8 12 1025.7 1025.2 0.0
28/10:00am 15.4 12.0 6.1 54 4.5 SW 13 20 7 11 1025.9 1025.4 0.0
28/09:30am 13.1 10.4 5.8 61 3.5 SSW 9 13 5 7 1025.7 1025.2 0.0
28/09:00am 11.0 8.7 4.9 66 2.8 SSW 6 9 3 5 1025.3 1024.8 0.0
28/08:30am 8.7 7.3 3.5 70 2.3 CALM 0 0 0 0 1024.9 1024.4 0.0
28/08:00am 6.7 5.2 3.0 77 1.5 CALM 0 0 0 0 1024.8 1024.3 0.0
28/07:30am 4.6 2.8 1.3 79 1.3 CALM 0 0 0 0 1024.7 1024.2 0.0
28/07:00am 5.1 3.4 1.8 79 1.3 CALM 0 0 0 0 1024.6 1024.1 0.0
28/06:30am 4.9 3.1 1.4 78 1.4 CALM 0 0 0 0 1024.6 1024.1 0.0
28/06:00am 5.2 3.2 -0.2 68 2.1 CALM 0 0 0 0 1024.5 1024.0 0.0
28/05:30am 5.7 3.9 0.9 71 1.9 CALM 0 0 0 0 1024.2 1023.7 0.0
28/05:00am 6.0 4.1 0.6 68 2.1 CALM 0 0 0 0 1023.9 1023.4 0.0
28/04:30am 6.5 4.8 1.6 71 2.0 CALM 0 0 0 0 1023.7 1023.2 0.0
28/04:00am 6.9 5.3 2.2 72 1.9 CALM 0 0 0 0 1023.6 1023.1 0.0
28/03:30am 7.8 6.4 3.5 74 1.9 CALM 0 0 0 0 1023.5 1023.0 0.0
28/03:00am 7.2 4.5 2.7 73 1.9 NNE 6 7 3 4 1023.7 1023.2 0.0
28/02:30am 8.0 6.5 2.9 70 2.2 CALM 0 0 0 0 1023.9 1023.4 0.0
28/02:00am 8.0 5.9 2.0 66 2.5 S 2 7 1 4 1024.1 1023.6 0.0
28/01:30am 7.9 6.3 2.4 68 2.3 CALM 0 0 0 0 1024.0 1023.5 0.0
28/01:00am 9.0 7.3 2.1 62 2.9 CALM 0 0 0 0 1024.2 1023.7 0.0
28/12:30am 10.0 8.3 1.6 56 3.5 CALM 0 0 0 0 1024.2 1023.7 0.0
28/12:00am 10.4 8.8 2.5 58 3.4 CALM 0 0 0 0 1024.2 1023.7 0.0
 
Date/Time
EDT
Temp
°C
App
Temp
°C
Dew
Point
Rel
Hum
%
Delta-T
°C
Wind Press
QNH
hPa
Press
MSL
hPa
Rain
since 9 am
mm
Dir
 
Spd
km/h
Gust
km/h
Spd
kts
Gust
kts
27/11:30pm 12.7 10.0 2.6 50 4.5 WSW 6 11 3 6 1024.3 1023.8 0.0
27/11:00pm 12.8 9.6 3.2 52 4.3 SW 9 13 5 7 1024.3 1023.8 0.0
27/10:30pm 13.3 10.6 2.8 49 4.7 WSW 6 7 3 4 1024.3 1023.8 0.0
27/10:00pm 14.8 11.8 3.9 48 5.0 SW 9 11 5 6 1024.2 1023.7 0.0
27/09:30pm 14.7 11.5 3.2 46 5.2 SSW 9 13 5 7 1024.1 1023.6 0.0
27/09:00pm 15.7 12.6 3.5 44 5.6 SW 9 11 5 6 1023.8 1023.3 0.0
27/08:30pm 16.7 13.7 4.1 43 5.9 SSW 9 15 5 8 1023.5 1023.0 0.0
27/08:00pm 17.4 13.6 4.0 41 6.3 SW 13 19 7 10 1022.9 1022.4 0.0
27/07:30pm 18.3 14.1 3.8 38 6.9 SW 15 22 8 12 1022.6 1022.1 0.0
27/07:00pm 19.2 14.6 3.8 36 7.3 SW 17 24 9 13 1022.4 1021.9 0.0
27/06:30pm 20.1 14.3 4.2 35 7.7 SW 24 32 13 17 1022.2 1021.7 0.0
27/06:00pm 20.8 15.8 4.4 34 8.0 WSW 20 32 11 17 1021.9 1021.3 0.0
27/05:30pm 20.9 14.6 4.0 33 8.2 SW 26 39 14 21 1021.8 1021.2 0.0
27/05:00pm 21.8 16.4 4.4 32 8.5 WSW 22 33 12 18 1021.8 1021.2 0.0
27/04:30pm 21.7 15.9 4.3 32 8.5 WSW 24 35 13 19 1021.9 1021.3 0.0
27/04:00pm 21.3 15.8 4.0 32 8.4 SW 22 35 12 19 1022.0 1021.4 0.0
27/03:30pm 21.4 16.3 4.0 32 8.5 SW 20 30 11 16 1022.3 1021.8 0.0
27/03:00pm 20.9 15.0 4.0 33 8.2 W 24 39 13 21 1022.7 1022.2 0.0
27/02:30pm 21.0 15.2 4.6 34 8.0 SW 24 37 13 20 1023.0 1022.5 0.0
27/02:00pm 20.6 15.7 5.0 36 7.7 WSW 20 30 11 16 1023.4 1022.9 0.0
27/01:30pm 19.7 14.3 4.6 37 7.3 WSW 22 35 12 19 1023.9 1023.4 0.0
27/01:00pm 19.3 14.5 5.7 41 6.7 SW 20 32 11 17 1024.3 1023.8 0.0
27/12:30pm 18.8 14.0 5.6 42 6.5 WSW 20 30 11 16 1024.9 1024.4 0.0
27/12:00pm 17.8 13.2 6.3 47 5.7 WSW 20 30 11 16 1025.3 1024.8 0.0

Other Formats:

Comma delimited format used in spreadsheet applications
http://www.bom.gov.au/fwo/IDN60801/IDN60801.95706.axf

JavaScript Object Notation format (JSON) in row-major order
http://www.bom.gov.au/fwo/IDN60801/IDN60801.95706.json